sensor_id;sensor_type;location;lat;lon;timestamp;P1;durP1;ratioP1;P2;durP2;ratioP2
55069;SDS011;40967;52.070;8.596;2023-12-28T00:00:23;5.70;;;1.00;;
55069;SDS011;40967;52.070;8.596;2023-12-28T00:02:52;2.85;;;1.20;;
55069;SDS011;40967;52.070;8.596;2023-12-28T00:05:19;3.45;;;1.15;;
55069;SDS011;40967;52.070;8.596;2023-12-28T00:07:47;3.85;;;1.23;;
55069;SDS011;40967;52.070;8.596;2023-12-28T00:10:15;3.70;;;1.23;;
55069;SDS011;40967;52.070;8.596;2023-12-28T00:12:42;2.05;;;0.90;;
55069;SDS011;40967;52.070;8.596;2023-12-28T00:15:09;3.45;;;1.23;;
55069;SDS011;40967;52.070;8.596;2023-12-28T00:17:37;4.07;;;1.40;;
55069;SDS011;40967;52.070;8.596;2023-12-28T00:20:07;3.28;;;1.08;;
55069;SDS011;40967;52.070;8.596;2023-12-28T00:22:35;2.38;;;1.10;;
55069;SDS011;40967;52.070;8.596;2023-12-28T00:25:03;2.27;;;1.10;;
55069;SDS011;40967;52.070;8.596;2023-12-28T00:27:31;2.33;;;1.10;;
55069;SDS011;40967;52.070;8.596;2023-12-28T00:29:59;3.10;;;1.23;;
55069;SDS011;40967;52.070;8.596;2023-12-28T00:32:29;3.65;;;1.30;;
55069;SDS011;40967;52.070;8.596;2023-12-28T00:34:56;2.58;;;1.27;;
55069;SDS011;40967;52.070;8.596;2023-12-28T00:37:24;3.77;;;1.23;;
55069;SDS011;40967;52.070;8.596;2023-12-28T00:39:51;2.60;;;1.10;;
55069;SDS011;40967;52.070;8.596;2023-12-28T00:42:17;3.78;;;1.30;;
55069;SDS011;40967;52.070;8.596;2023-12-28T00:44:44;3.08;;;1.30;;
55069;SDS011;40967;52.070;8.596;2023-12-28T00:47:11;4.00;;;1.45;;
55069;SDS011;40967;52.070;8.596;2023-12-28T00:49:38;3.10;;;1.40;;
55069;SDS011;40967;52.070;8.596;2023-12-28T00:52:05;3.53;;;1.30;;
55069;SDS011;40967;52.070;8.596;2023-12-28T00:54:37;3.25;;;1.40;;
55069;SDS011;40967;52.070;8.596;2023-12-28T00:57:05;3.07;;;1.30;;
55069;SDS011;40967;52.070;8.596;2023-12-28T00:59:32;3.65;;;1.30;;
55069;SDS011;40967;52.070;8.596;2023-12-28T01:01:59;2.22;;;1.10;;
55069;SDS011;40967;52.070;8.596;2023-12-28T01:04:25;2.80;;;1.40;;
55069;SDS011;40967;52.070;8.596;2023-12-28T01:06:52;2.80;;;1.23;;
55069;SDS011;40967;52.070;8.596;2023-12-28T01:09:19;4.07;;;1.80;;
55069;SDS011;40967;52.070;8.596;2023-12-28T01:11:47;4.97;;;1.50;;
55069;SDS011;40967;52.070;8.596;2023-12-28T01:14:14;5.18;;;1.70;;
55069;SDS011;40967;52.070;8.596;2023-12-28T01:16:41;3.78;;;1.42;;
55069;SDS011;40967;52.070;8.596;2023-12-28T01:19:09;3.22;;;1.30;;
55069;SDS011;40967;52.070;8.596;2023-12-28T01:21:36;3.80;;;1.52;;
55069;SDS011;40967;52.070;8.596;2023-12-28T01:24:03;3.83;;;1.60;;
55069;SDS011;40967;52.070;8.596;2023-12-28T01:26:31;2.70;;;1.20;;
55069;SDS011;40967;52.070;8.596;2023-12-28T01:29:01;4.03;;;1.50;;
55069;SDS011;40967;52.070;8.596;2023-12-28T01:31:28;3.65;;;1.50;;
55069;SDS011;40967;52.070;8.596;2023-12-28T01:33:55;4.60;;;1.50;;
55069;SDS011;40967;52.070;8.596;2023-12-28T01:36:22;3.92;;;1.50;;
55069;SDS011;40967;52.070;8.596;2023-12-28T01:38:49;2.40;;;1.38;;
55069;SDS011;40967;52.070;8.596;2023-12-28T01:41:15;2.85;;;1.35;;
55069;SDS011;40967;52.070;8.596;2023-12-28T01:43:42;3.03;;;1.35;;
55069;SDS011;40967;52.070;8.596;2023-12-28T01:46:12;4.75;;;1.55;;
55069;SDS011;40967;52.070;8.596;2023-12-28T01:48:43;3.85;;;1.60;;
55069;SDS011;40967;52.070;8.596;2023-12-28T01:51:12;6.32;;;1.60;;
55069;SDS011;40967;52.070;8.596;2023-12-28T01:53:40;2.88;;;1.60;;
55069;SDS011;40967;52.070;8.596;2023-12-28T01:56:08;2.17;;;1.17;;
55069;SDS011;40967;52.070;8.596;2023-12-28T01:58:35;6.03;;;2.00;;
55069;SDS011;40967;52.070;8.596;2023-12-28T02:01:03;3.17;;;1.67;;
55069;SDS011;40967;52.070;8.596;2023-12-28T02:03:31;5.15;;;2.00;;
55069;SDS011;40967;52.070;8.596;2023-12-28T02:05:59;3.97;;;1.50;;
55069;SDS011;40967;52.070;8.596;2023-12-28T02:08:27;3.95;;;1.52;;
55069;SDS011;40967;52.070;8.596;2023-12-28T02:10:54;3.13;;;1.40;;
55069;SDS011;40967;52.070;8.596;2023-12-28T02:13:21;4.25;;;1.50;;
55069;SDS011;40967;52.070;8.596;2023-12-28T02:15:49;3.25;;;1.48;;
55069;SDS011;40967;52.070;8.596;2023-12-28T02:18:21;2.90;;;1.40;;
55069;SDS011;40967;52.070;8.596;2023-12-28T02:20:52;2.78;;;1.30;;
55069;SDS011;40967;52.070;8.596;2023-12-28T02:23:21;3.05;;;1.40;;
55069;SDS011;40967;52.070;8.596;2023-12-28T02:25:49;2.85;;;1.45;;
55069;SDS011;40967;52.070;8.596;2023-12-28T02:28:17;3.65;;;1.38;;
55069;SDS011;40967;52.070;8.596;2023-12-28T02:30:43;2.95;;;1.27;;
55069;SDS011;40967;52.070;8.596;2023-12-28T02:33:11;3.00;;;1.30;;
55069;SDS011;40967;52.070;8.596;2023-12-28T02:35:43;3.03;;;1.60;;
55069;SDS011;40967;52.070;8.596;2023-12-28T02:38:14;4.50;;;2.00;;
55069;SDS011;40967;52.070;8.596;2023-12-28T02:40:42;2.65;;;1.30;;
55069;SDS011;40967;52.070;8.596;2023-12-28T02:43:12;3.92;;;1.38;;
55069;SDS011;40967;52.070;8.596;2023-12-28T02:45:39;2.90;;;1.40;;
55069;SDS011;40967;52.070;8.596;2023-12-28T02:48:06;3.97;;;1.67;;
55069;SDS011;40967;52.070;8.596;2023-12-28T02:50:33;4.22;;;1.55;;
55069;SDS011;40967;52.070;8.596;2023-12-28T02:53:01;2.93;;;1.33;;
55069;SDS011;40967;52.070;8.596;2023-12-28T02:55:28;3.87;;;1.60;;
55069;SDS011;40967;52.070;8.596;2023-12-28T02:57:55;2.95;;;1.30;;
55069;SDS011;40967;52.070;8.596;2023-12-28T03:00:25;3.28;;;1.50;;
55069;SDS011;40967;52.070;8.596;2023-12-28T03:02:53;3.42;;;1.30;;
55069;SDS011;40967;52.070;8.596;2023-12-28T03:05:22;2.60;;;1.35;;
55069;SDS011;40967;52.070;8.596;2023-12-28T03:07:49;2.95;;;1.23;;
55069;SDS011;40967;52.070;8.596;2023-12-28T03:10:16;4.45;;;1.60;;
55069;SDS011;40967;52.070;8.596;2023-12-28T03:12:43;3.00;;;1.30;;
55069;SDS011;40967;52.070;8.596;2023-12-28T03:15:13;3.50;;;1.33;;
55069;SDS011;40967;52.070;8.596;2023-12-28T03:17:41;3.03;;;1.42;;
55069;SDS011;40967;52.070;8.596;2023-12-28T03:20:09;3.90;;;1.48;;
55069;SDS011;40967;52.070;8.596;2023-12-28T03:22:36;3.80;;;1.50;;
55069;SDS011;40967;52.070;8.596;2023-12-28T03:25:06;3.17;;;1.52;;
55069;SDS011;40967;52.070;8.596;2023-12-28T03:27:33;3.10;;;1.40;;
55069;SDS011;40967;52.070;8.596;2023-12-28T03:30:00;3.37;;;1.43;;
55069;SDS011;40967;52.070;8.596;2023-12-28T03:32:26;2.50;;;1.30;;
55069;SDS011;40967;52.070;8.596;2023-12-28T03:34:55;3.30;;;1.70;;
55069;SDS011;40967;52.070;8.596;2023-12-28T03:37:21;3.42;;;1.65;;
55069;SDS011;40967;52.070;8.596;2023-12-28T03:39:48;3.25;;;1.60;;
55069;SDS011;40967;52.070;8.596;2023-12-28T03:42:15;5.07;;;1.80;;
55069;SDS011;40967;52.070;8.596;2023-12-28T03:44:42;3.83;;;1.60;;
55069;SDS011;40967;52.070;8.596;2023-12-28T03:47:10;4.10;;;1.90;;
55069;SDS011;40967;52.070;8.596;2023-12-28T03:49:38;3.55;;;1.70;;
55069;SDS011;40967;52.070;8.596;2023-12-28T03:52:07;4.57;;;1.50;;
55069;SDS011;40967;52.070;8.596;2023-12-28T03:54:34;3.47;;;1.70;;
55069;SDS011;40967;52.070;8.596;2023-12-28T03:57:01;3.58;;;1.60;;
55069;SDS011;40967;52.070;8.596;2023-12-28T03:59:28;4.93;;;1.90;;
55069;SDS011;40967;52.070;8.596;2023-12-28T04:01:54;3.10;;;1.55;;
55069;SDS011;40967;52.070;8.596;2023-12-28T04:04:21;5.47;;;1.90;;
55069;SDS011;40967;52.070;8.596;2023-12-28T04:06:48;2.78;;;1.50;;
55069;SDS011;40967;52.070;8.596;2023-12-28T04:09:16;3.43;;;1.60;;
55069;SDS011;40967;52.070;8.596;2023-12-28T04:11:44;4.05;;;1.88;;
55069;SDS011;40967;52.070;8.596;2023-12-28T04:14:11;4.60;;;1.67;;
55069;SDS011;40967;52.070;8.596;2023-12-28T04:16:38;3.13;;;1.40;;
55069;SDS011;40967;52.070;8.596;2023-12-28T04:19:05;3.20;;;1.50;;
55069;SDS011;40967;52.070;8.596;2023-12-28T04:21:31;3.47;;;1.50;;
55069;SDS011;40967;52.070;8.596;2023-12-28T04:23:58;4.45;;;1.50;;
55069;SDS011;40967;52.070;8.596;2023-12-28T04:26:26;3.50;;;1.50;;
55069;SDS011;40967;52.070;8.596;2023-12-28T04:28:53;2.70;;;1.40;;
55069;SDS011;40967;52.070;8.596;2023-12-28T04:31:20;3.70;;;1.55;;
55069;SDS011;40967;52.070;8.596;2023-12-28T04:33:47;4.72;;;1.60;;
55069;SDS011;40967;52.070;8.596;2023-12-28T04:36:14;3.58;;;1.60;;
55069;SDS011;40967;52.070;8.596;2023-12-28T04:38:41;3.08;;;1.40;;
55069;SDS011;40967;52.070;8.596;2023-12-28T04:41:09;4.45;;;1.52;;
55069;SDS011;40967;52.070;8.596;2023-12-28T04:43:38;3.83;;;1.40;;
55069;SDS011;40967;52.070;8.596;2023-12-28T04:46:05;3.50;;;1.70;;
55069;SDS011;40967;52.070;8.596;2023-12-28T04:48:32;4.25;;;1.52;;
55069;SDS011;40967;52.070;8.596;2023-12-28T04:51:01;4.40;;;1.60;;
55069;SDS011;40967;52.070;8.596;2023-12-28T04:53:29;3.13;;;1.40;;
55069;SDS011;40967;52.070;8.596;2023-12-28T04:55:55;3.58;;;1.60;;
55069;SDS011;40967;52.070;8.596;2023-12-28T04:58:37;3.03;;;1.50;;
55069;SDS011;40967;52.070;8.596;2023-12-28T05:01:04;3.53;;;1.37;;
55069;SDS011;40967;52.070;8.596;2023-12-28T05:03:31;4.57;;;1.45;;
55069;SDS011;40967;52.070;8.596;2023-12-28T05:05:58;2.50;;;1.30;;
55069;SDS011;40967;52.070;8.596;2023-12-28T05:08:25;5.15;;;1.40;;
55069;SDS011;40967;52.070;8.596;2023-12-28T05:10:52;4.32;;;1.27;;
55069;SDS011;40967;52.070;8.596;2023-12-28T05:13:18;4.83;;;1.60;;
55069;SDS011;40967;52.070;8.596;2023-12-28T05:15:46;4.88;;;1.63;;
55069;SDS011;40967;52.070;8.596;2023-12-28T05:18:13;3.70;;;1.40;;
55069;SDS011;40967;52.070;8.596;2023-12-28T05:20:40;3.60;;;1.53;;
55069;SDS011;40967;52.070;8.596;2023-12-28T05:23:07;3.20;;;1.08;;
55069;SDS011;40967;52.070;8.596;2023-12-28T05:25:34;2.67;;;1.23;;
55069;SDS011;40967;52.070;8.596;2023-12-28T05:28:00;2.85;;;1.40;;
55069;SDS011;40967;52.070;8.596;2023-12-28T05:30:27;3.05;;;1.10;;
55069;SDS011;40967;52.070;8.596;2023-12-28T05:32:55;2.97;;;1.30;;
55069;SDS011;40967;52.070;8.596;2023-12-28T05:35:25;3.58;;;1.33;;
55069;SDS011;40967;52.070;8.596;2023-12-28T05:37:52;2.80;;;0.93;;
55069;SDS011;40967;52.070;8.596;2023-12-28T05:40:19;4.38;;;1.30;;
55069;SDS011;40967;52.070;8.596;2023-12-28T05:42:46;4.57;;;2.17;;
55069;SDS011;40967;52.070;8.596;2023-12-28T05:45:13;9.50;;;4.82;;
55069;SDS011;40967;52.070;8.596;2023-12-28T05:47:40;7.38;;;3.70;;
55069;SDS011;40967;52.070;8.596;2023-12-28T05:50:08;8.37;;;4.17;;
55069;SDS011;40967;52.070;8.596;2023-12-28T05:52:35;10.23;;;4.57;;
55069;SDS011;40967;52.070;8.596;2023-12-28T05:55:03;9.60;;;4.95;;
55069;SDS011;40967;52.070;8.596;2023-12-28T05:57:31;9.63;;;4.30;;
55069;SDS011;40967;52.070;8.596;2023-12-28T05:59:58;6.50;;;3.42;;
55069;SDS011;40967;52.070;8.596;2023-12-28T06:02:24;7.13;;;3.53;;
55069;SDS011;40967;52.070;8.596;2023-12-28T06:04:52;7.13;;;2.88;;
55069;SDS011;40967;52.070;8.596;2023-12-28T06:07:20;6.72;;;2.83;;
55069;SDS011;40967;52.070;8.596;2023-12-28T06:09:47;9.77;;;4.57;;
55069;SDS011;40967;52.070;8.596;2023-12-28T06:12:17;8.88;;;4.30;;
55069;SDS011;40967;52.070;8.596;2023-12-28T06:14:44;15.40;;;7.72;;
55069;SDS011;40967;52.070;8.596;2023-12-28T06:17:11;8.95;;;4.40;;
55069;SDS011;40967;52.070;8.596;2023-12-28T06:19:40;8.35;;;4.10;;
55069;SDS011;40967;52.070;8.596;2023-12-28T06:22:08;8.77;;;4.00;;
55069;SDS011;40967;52.070;8.596;2023-12-28T06:24:38;7.90;;;4.15;;
55069;SDS011;40967;52.070;8.596;2023-12-28T06:27:06;8.43;;;4.40;;
55069;SDS011;40967;52.070;8.596;2023-12-28T06:29:33;7.40;;;3.72;;
55069;SDS011;40967;52.070;8.596;2023-12-28T06:31:59;7.50;;;3.55;;
55069;SDS011;40967;52.070;8.596;2023-12-28T06:34:26;9.60;;;4.30;;
55069;SDS011;40967;52.070;8.596;2023-12-28T06:36:53;6.88;;;3.55;;
55069;SDS011;40967;52.070;8.596;2023-12-28T06:39:20;4.80;;;2.70;;
55069;SDS011;40967;52.070;8.596;2023-12-28T06:41:48;3.65;;;1.95;;
55069;SDS011;40967;52.070;8.596;2023-12-28T06:44:15;3.85;;;1.60;;
55069;SDS011;40967;52.070;8.596;2023-12-28T06:46:42;4.55;;;2.00;;
55069;SDS011;40967;52.070;8.596;2023-12-28T06:49:09;4.17;;;1.83;;
55069;SDS011;40967;52.070;8.596;2023-12-28T06:51:36;7.23;;;2.83;;
55069;SDS011;40967;52.070;8.596;2023-12-28T06:54:03;8.65;;;3.70;;
55069;SDS011;40967;52.070;8.596;2023-12-28T06:56:30;13.80;;;6.18;;
55069;SDS011;40967;52.070;8.596;2023-12-28T06:59:01;14.10;;;6.40;;
55069;SDS011;40967;52.070;8.596;2023-12-28T07:01:28;12.57;;;6.13;;
55069;SDS011;40967;52.070;8.596;2023-12-28T07:03:55;16.30;;;8.30;;
55069;SDS011;40967;52.070;8.596;2023-12-28T07:06:24;16.60;;;9.02;;
55069;SDS011;40967;52.070;8.596;2023-12-28T07:08:54;12.65;;;6.75;;
55069;SDS011;40967;52.070;8.596;2023-12-28T07:11:21;10.07;;;5.55;;
55069;SDS011;40967;52.070;8.596;2023-12-28T07:13:53;9.52;;;5.28;;
55069;SDS011;40967;52.070;8.596;2023-12-28T07:16:21;6.43;;;3.33;;
55069;SDS011;40967;52.070;8.596;2023-12-28T07:18:51;5.10;;;1.90;;
55069;SDS011;40967;52.070;8.596;2023-12-28T07:21:21;6.30;;;1.73;;
55069;SDS011;40967;52.070;8.596;2023-12-28T07:23:47;4.75;;;1.55;;
55069;SDS011;40967;52.070;8.596;2023-12-28T07:26:15;3.67;;;1.33;;
55069;SDS011;40967;52.070;8.596;2023-12-28T07:28:42;2.85;;;1.30;;
55069;SDS011;40967;52.070;8.596;2023-12-28T07:31:11;3.72;;;1.25;;
55069;SDS011;40967;52.070;8.596;2023-12-28T07:33:39;2.80;;;0.90;;
55069;SDS011;40967;52.070;8.596;2023-12-28T07:36:06;3.70;;;1.00;;
55069;SDS011;40967;52.070;8.596;2023-12-28T07:38:41;4.95;;;1.30;;
55069;SDS011;40967;52.070;8.596;2023-12-28T07:41:26;2.37;;;1.10;;
55069;SDS011;40967;52.070;8.596;2023-12-28T07:43:55;2.45;;;1.00;;
55069;SDS011;40967;52.070;8.596;2023-12-28T07:46:23;3.00;;;1.00;;
55069;SDS011;40967;52.070;8.596;2023-12-28T07:48:52;2.05;;;0.93;;
55069;SDS011;40967;52.070;8.596;2023-12-28T07:51:19;3.57;;;1.17;;
55069;SDS011;40967;52.070;8.596;2023-12-28T07:53:46;3.33;;;1.15;;
55069;SDS011;40967;52.070;8.596;2023-12-28T07:56:16;2.45;;;0.90;;
55069;SDS011;40967;52.070;8.596;2023-12-28T07:58:43;2.67;;;1.10;;
55069;SDS011;40967;52.070;8.596;2023-12-28T08:01:10;3.83;;;1.50;;
55069;SDS011;40967;52.070;8.596;2023-12-28T08:03:37;3.70;;;1.40;;
55069;SDS011;40967;52.070;8.596;2023-12-28T08:06:05;3.40;;;1.30;;
55069;SDS011;40967;52.070;8.596;2023-12-28T08:08:32;3.53;;;1.30;;
55069;SDS011;40967;52.070;8.596;2023-12-28T08:11:02;2.90;;;1.00;;
55069;SDS011;40967;52.070;8.596;2023-12-28T08:13:35;3.77;;;1.37;;
55069;SDS011;40967;52.070;8.596;2023-12-28T08:16:02;4.88;;;1.20;;
55069;SDS011;40967;52.070;8.596;2023-12-28T08:18:32;7.25;;;1.67;;
55069;SDS011;40967;52.070;8.596;2023-12-28T08:20:59;2.83;;;1.00;;
55069;SDS011;40967;52.070;8.596;2023-12-28T08:23:27;2.73;;;0.93;;
55069;SDS011;40967;52.070;8.596;2023-12-28T08:25:54;3.55;;;1.33;;
55069;SDS011;40967;52.070;8.596;2023-12-28T08:28:24;3.13;;;1.35;;
55069;SDS011;40967;52.070;8.596;2023-12-28T08:30:51;2.95;;;1.10;;
55069;SDS011;40967;52.070;8.596;2023-12-28T08:33:18;2.80;;;1.00;;
55069;SDS011;40967;52.070;8.596;2023-12-28T08:35:45;4.65;;;1.40;;
55069;SDS011;40967;52.070;8.596;2023-12-28T08:38:11;3.50;;;1.13;;
55069;SDS011;40967;52.070;8.596;2023-12-28T08:40:40;3.50;;;1.60;;
55069;SDS011;40967;52.070;8.596;2023-12-28T08:43:09;5.05;;;1.92;;
55069;SDS011;40967;52.070;8.596;2023-12-28T08:45:36;13.77;;;5.80;;
55069;SDS011;40967;52.070;8.596;2023-12-28T08:48:04;18.38;;;8.32;;
55069;SDS011;40967;52.070;8.596;2023-12-28T08:50:33;15.10;;;6.95;;
55069;SDS011;40967;52.070;8.596;2023-12-28T08:53:00;26.95;;;11.45;;
55069;SDS011;40967;52.070;8.596;2023-12-28T08:55:27;20.20;;;9.15;;
55069;SDS011;40967;52.070;8.596;2023-12-28T08:57:56;14.80;;;6.88;;
55069;SDS011;40967;52.070;8.596;2023-12-28T09:00:22;8.77;;;4.68;;
55069;SDS011;40967;52.070;8.596;2023-12-28T09:02:49;7.70;;;3.30;;
55069;SDS011;40967;52.070;8.596;2023-12-28T09:05:16;10.02;;;4.45;;
55069;SDS011;40967;52.070;8.596;2023-12-28T09:07:45;9.15;;;4.40;;
55069;SDS011;40967;52.070;8.596;2023-12-28T09:10:12;7.57;;;3.35;;
55069;SDS011;40967;52.070;8.596;2023-12-28T09:12:40;6.17;;;3.00;;
55069;SDS011;40967;52.070;8.596;2023-12-28T09:15:09;6.68;;;1.73;;
55069;SDS011;40967;52.070;8.596;2023-12-28T09:17:37;5.35;;;1.30;;
55069;SDS011;40967;52.070;8.596;2023-12-28T09:20:07;3.97;;;1.45;;
55069;SDS011;40967;52.070;8.596;2023-12-28T09:22:34;3.35;;;1.20;;
55069;SDS011;40967;52.070;8.596;2023-12-28T09:25:01;4.93;;;1.30;;
55069;SDS011;40967;52.070;8.596;2023-12-28T09:27:30;3.42;;;1.30;;
55069;SDS011;40967;52.070;8.596;2023-12-28T09:29:56;4.68;;;1.35;;
55069;SDS011;40967;52.070;8.596;2023-12-28T09:32:25;4.57;;;1.30;;
55069;SDS011;40967;52.070;8.596;2023-12-28T09:34:55;3.75;;;1.27;;
55069;SDS011;40967;52.070;8.596;2023-12-28T09:37:33;4.07;;;1.40;;
55069;SDS011;40967;52.070;8.596;2023-12-28T09:40:17;5.85;;;1.50;;
55069;SDS011;40967;52.070;8.596;2023-12-28T09:42:47;3.75;;;1.40;;
55069;SDS011;40967;52.070;8.596;2023-12-28T09:45:23;3.83;;;1.20;;
55069;SDS011;40967;52.070;8.596;2023-12-28T09:50:42;4.07;;;1.27;;
55069;SDS011;40967;52.070;8.596;2023-12-28T09:53:12;4.00;;;1.38;;
55069;SDS011;40967;52.070;8.596;2023-12-28T09:55:52;3.92;;;1.30;;
55069;SDS011;40967;52.070;8.596;2023-12-28T09:58:24;6.43;;;1.52;;
55069;SDS011;40967;52.070;8.596;2023-12-28T10:00:55;5.63;;;1.30;;
55069;SDS011;40967;52.070;8.596;2023-12-28T10:03:33;5.18;;;1.30;;
55069;SDS011;40967;52.070;8.596;2023-12-28T10:06:05;4.95;;;1.60;;
55069;SDS011;40967;52.070;8.596;2023-12-28T10:08:33;4.07;;;1.50;;
55069;SDS011;40967;52.070;8.596;2023-12-28T10:11:02;5.65;;;1.50;;
55069;SDS011;40967;52.070;8.596;2023-12-28T10:13:32;6.20;;;1.42;;
55069;SDS011;40967;52.070;8.596;2023-12-28T10:16:01;3.70;;;1.10;;
55069;SDS011;40967;52.070;8.596;2023-12-28T10:18:33;5.03;;;1.30;;
55069;SDS011;40967;52.070;8.596;2023-12-28T10:21:00;3.10;;;1.10;;
55069;SDS011;40967;52.070;8.596;2023-12-28T10:23:27;5.07;;;1.30;;
55069;SDS011;40967;52.070;8.596;2023-12-28T10:25:55;5.18;;;1.20;;
55069;SDS011;40967;52.070;8.596;2023-12-28T10:28:23;6.00;;;1.67;;
55069;SDS011;40967;52.070;8.596;2023-12-28T10:30:53;5.55;;;1.27;;
55069;SDS011;40967;52.070;8.596;2023-12-28T10:33:20;4.05;;;1.27;;
55069;SDS011;40967;52.070;8.596;2023-12-28T10:35:54;5.40;;;1.42;;
55069;SDS011;40967;52.070;8.596;2023-12-28T10:38:26;5.00;;;1.25;;
55069;SDS011;40967;52.070;8.596;2023-12-28T10:41:00;5.88;;;1.58;;
55069;SDS011;40967;52.070;8.596;2023-12-28T10:43:35;5.68;;;1.50;;
55069;SDS011;40967;52.070;8.596;2023-12-28T10:46:16;6.28;;;1.70;;
55069;SDS011;40967;52.070;8.596;2023-12-28T10:48:49;6.47;;;1.50;;
55069;SDS011;40967;52.070;8.596;2023-12-28T10:51:21;4.25;;;1.27;;
55069;SDS011;40967;52.070;8.596;2023-12-28T10:53:53;6.67;;;1.60;;
55069;SDS011;40967;52.070;8.596;2023-12-28T10:56:28;4.75;;;1.40;;
55069;SDS011;40967;52.070;8.596;2023-12-28T10:59:19;5.43;;;1.40;;
55069;SDS011;40967;52.070;8.596;2023-12-28T11:01:58;4.70;;;1.33;;
55069;SDS011;40967;52.070;8.596;2023-12-28T11:04:40;5.65;;;1.33;;
55069;SDS011;40967;52.070;8.596;2023-12-28T11:07:10;7.18;;;2.05;;
55069;SDS011;40967;52.070;8.596;2023-12-28T11:09:42;5.22;;;1.50;;
55069;SDS011;40967;52.070;8.596;2023-12-28T11:12:10;6.30;;;1.40;;
55069;SDS011;40967;52.070;8.596;2023-12-28T11:14:41;4.63;;;1.10;;
55069;SDS011;40967;52.070;8.596;2023-12-28T11:17:23;7.35;;;1.83;;
55069;SDS011;40967;52.070;8.596;2023-12-28T11:19:51;4.72;;;1.35;;
55069;SDS011;40967;52.070;8.596;2023-12-28T11:22:24;5.35;;;1.75;;
55069;SDS011;40967;52.070;8.596;2023-12-28T11:24:56;5.80;;;1.30;;
55069;SDS011;40967;52.070;8.596;2023-12-28T11:27:34;8.20;;;1.85;;
55069;SDS011;40967;52.070;8.596;2023-12-28T11:30:34;6.93;;;1.50;;
55069;SDS011;40967;52.070;8.596;2023-12-28T11:33:09;6.22;;;1.83;;
55069;SDS011;40967;52.070;8.596;2023-12-28T11:36:10;6.45;;;1.45;;
55069;SDS011;40967;52.070;8.596;2023-12-28T11:38:47;7.23;;;1.93;;
55069;SDS011;40967;52.070;8.596;2023-12-28T11:41:25;6.20;;;2.03;;
55069;SDS011;40967;52.070;8.596;2023-12-28T11:43:53;6.57;;;1.77;;
55069;SDS011;40967;52.070;8.596;2023-12-28T11:46:31;4.00;;;1.27;;
55069;SDS011;40967;52.070;8.596;2023-12-28T11:49:03;4.73;;;1.40;;
55069;SDS011;40967;52.070;8.596;2023-12-28T11:51:33;7.03;;;1.85;;
55069;SDS011;40967;52.070;8.596;2023-12-28T11:54:04;5.85;;;1.42;;
55069;SDS011;40967;52.070;8.596;2023-12-28T11:56:41;5.22;;;1.50;;
55069;SDS011;40967;52.070;8.596;2023-12-28T11:59:14;6.40;;;1.33;;
55069;SDS011;40967;52.070;8.596;2023-12-28T12:01:50;8.70;;;1.77;;
55069;SDS011;40967;52.070;8.596;2023-12-28T12:04:18;5.95;;;1.38;;
55069;SDS011;40967;52.070;8.596;2023-12-28T12:06:45;7.40;;;1.70;;
55069;SDS011;40967;52.070;8.596;2023-12-28T12:09:18;5.97;;;1.50;;
55069;SDS011;40967;52.070;8.596;2023-12-28T12:11:51;7.18;;;1.50;;
55069;SDS011;40967;52.070;8.596;2023-12-28T12:14:23;5.65;;;1.50;;
55069;SDS011;40967;52.070;8.596;2023-12-28T12:16:50;4.90;;;1.50;;
55069;SDS011;40967;52.070;8.596;2023-12-28T12:19:18;5.83;;;1.70;;
55069;SDS011;40967;52.070;8.596;2023-12-28T12:21:45;5.55;;;1.50;;
55069;SDS011;40967;52.070;8.596;2023-12-28T12:24:15;5.80;;;1.65;;
55069;SDS011;40967;52.070;8.596;2023-12-28T12:26:43;7.43;;;1.38;;
55069;SDS011;40967;52.070;8.596;2023-12-28T12:29:16;5.47;;;1.50;;
55069;SDS011;40967;52.070;8.596;2023-12-28T12:31:44;5.25;;;1.55;;
55069;SDS011;40967;52.070;8.596;2023-12-28T12:34:13;6.50;;;1.60;;
55069;SDS011;40967;52.070;8.596;2023-12-28T12:36:50;7.75;;;1.27;;
55069;SDS011;40967;52.070;8.596;2023-12-28T12:39:25;6.88;;;1.63;;
55069;SDS011;40967;52.070;8.596;2023-12-28T12:41:54;5.90;;;1.60;;
55069;SDS011;40967;52.070;8.596;2023-12-28T12:44:24;10.80;;;2.47;;
55069;SDS011;40967;52.070;8.596;2023-12-28T12:46:58;8.33;;;1.70;;
55069;SDS011;40967;52.070;8.596;2023-12-28T12:49:25;9.38;;;1.58;;
55069;SDS011;40967;52.070;8.596;2023-12-28T12:51:52;6.78;;;1.58;;
55069;SDS011;40967;52.070;8.596;2023-12-28T12:54:19;5.55;;;1.30;;
55069;SDS011;40967;52.070;8.596;2023-12-28T12:56:50;5.13;;;1.40;;
55069;SDS011;40967;52.070;8.596;2023-12-28T12:59:18;6.65;;;1.42;;
55069;SDS011;40967;52.070;8.596;2023-12-28T13:01:45;3.83;;;0.90;;
55069;SDS011;40967;52.070;8.596;2023-12-28T13:04:14;7.32;;;1.40;;
55069;SDS011;40967;52.070;8.596;2023-12-28T13:06:42;12.60;;;2.80;;
55069;SDS011;40967;52.070;8.596;2023-12-28T13:09:09;8.73;;;2.10;;
55069;SDS011;40967;52.070;8.596;2023-12-28T13:11:37;10.13;;;2.10;;
55069;SDS011;40967;52.070;8.596;2023-12-28T13:14:05;8.57;;;1.70;;
55069;SDS011;40967;52.070;8.596;2023-12-28T13:16:32;7.22;;;1.40;;
55069;SDS011;40967;52.070;8.596;2023-12-28T13:18:59;7.75;;;1.80;;
55069;SDS011;40967;52.070;8.596;2023-12-28T13:21:25;9.52;;;2.00;;
55069;SDS011;40967;52.070;8.596;2023-12-28T13:23:52;8.60;;;2.00;;
55069;SDS011;40967;52.070;8.596;2023-12-28T13:26:19;6.13;;;2.10;;
55069;SDS011;40967;52.070;8.596;2023-12-28T13:28:46;8.07;;;2.70;;
55069;SDS011;40967;52.070;8.596;2023-12-28T13:31:14;7.50;;;2.70;;
55069;SDS011;40967;52.070;8.596;2023-12-28T13:33:43;6.47;;;2.40;;
55069;SDS011;40967;52.070;8.596;2023-12-28T13:36:10;5.70;;;1.95;;
55069;SDS011;40967;52.070;8.596;2023-12-28T13:38:37;5.17;;;1.53;;
55069;SDS011;40967;52.070;8.596;2023-12-28T13:41:04;7.00;;;1.80;;
55069;SDS011;40967;52.070;8.596;2023-12-28T13:43:31;6.50;;;1.63;;
55069;SDS011;40967;52.070;8.596;2023-12-28T13:45:59;7.38;;;1.48;;
55069;SDS011;40967;52.070;8.596;2023-12-28T13:48:27;7.00;;;1.40;;
55069;SDS011;40967;52.070;8.596;2023-12-28T13:50:54;6.03;;;1.40;;
55069;SDS011;40967;52.070;8.596;2023-12-28T13:53:21;6.00;;;1.43;;
55069;SDS011;40967;52.070;8.596;2023-12-28T13:55:48;5.10;;;1.10;;
55069;SDS011;40967;52.070;8.596;2023-12-28T13:58:14;8.57;;;1.73;;
55069;SDS011;40967;52.070;8.596;2023-12-28T14:00:41;6.45;;;1.15;;
55069;SDS011;40967;52.070;8.596;2023-12-28T14:03:08;5.15;;;1.50;;
55069;SDS011;40967;52.070;8.596;2023-12-28T14:05:36;6.30;;;1.23;;
55069;SDS011;40967;52.070;8.596;2023-12-28T14:08:03;6.40;;;1.27;;
55069;SDS011;40967;52.070;8.596;2023-12-28T14:10:30;5.67;;;1.40;;
55069;SDS011;40967;52.070;8.596;2023-12-28T14:12:58;10.32;;;1.70;;
55069;SDS011;40967;52.070;8.596;2023-12-28T14:15:34;6.25;;;1.63;;
55069;SDS011;40967;52.070;8.596;2023-12-28T14:18:03;6.47;;;1.38;;
55069;SDS011;40967;52.070;8.596;2023-12-28T14:20:31;4.53;;;1.17;;
55069;SDS011;40967;52.070;8.596;2023-12-28T14:23:00;6.05;;;1.60;;
55069;SDS011;40967;52.070;8.596;2023-12-28T14:25:30;4.93;;;1.25;;
55069;SDS011;40967;52.070;8.596;2023-12-28T14:28:01;8.23;;;1.55;;
55069;SDS011;40967;52.070;8.596;2023-12-28T14:30:31;4.57;;;1.20;;
55069;SDS011;40967;52.070;8.596;2023-12-28T14:32:58;5.68;;;1.40;;
55069;SDS011;40967;52.070;8.596;2023-12-28T14:35:26;5.20;;;1.10;;
55069;SDS011;40967;52.070;8.596;2023-12-28T14:38:09;5.68;;;1.33;;
55069;SDS011;40967;52.070;8.596;2023-12-28T14:40:44;5.90;;;1.30;;
55069;SDS011;40967;52.070;8.596;2023-12-28T14:43:14;5.68;;;1.33;;
55069;SDS011;40967;52.070;8.596;2023-12-28T14:45:51;8.95;;;1.58;;
55069;SDS011;40967;52.070;8.596;2023-12-28T14:48:18;4.73;;;1.27;;
55069;SDS011;40967;52.070;8.596;2023-12-28T14:50:48;6.65;;;1.45;;
55069;SDS011;40967;52.070;8.596;2023-12-28T14:53:16;7.95;;;1.35;;
55069;SDS011;40967;52.070;8.596;2023-12-28T14:55:43;4.90;;;1.40;;
55069;SDS011;40967;52.070;8.596;2023-12-28T14:58:10;5.40;;;1.23;;
55069;SDS011;40967;52.070;8.596;2023-12-28T15:00:36;5.45;;;1.27;;